createdAt,value
2018-03-07T00:00:41.865Z,-0.18
2018-03-07T00:03:12.233Z,-0.22
2018-03-07T00:05:41.320Z,-0.24
2018-03-07T00:08:11.016Z,-0.22
2018-03-07T00:10:40.304Z,-0.20
2018-03-07T00:13:09.375Z,-0.17
2018-03-07T00:15:39.752Z,-0.15
2018-03-07T00:18:09.394Z,-0.16
2018-03-07T00:20:42.553Z,-0.16
2018-03-07T00:23:11.658Z,-0.16
2018-03-07T00:25:40.743Z,-0.16
2018-03-07T00:28:09.879Z,-0.18
2018-03-07T00:30:39.007Z,-0.18
2018-03-07T00:33:08.440Z,-0.18
2018-03-07T00:35:38.624Z,-0.16
2018-03-07T00:38:08.422Z,-0.14
2018-03-07T00:40:37.990Z,-0.10
2018-03-07T00:43:07.076Z,-0.08
2018-03-07T00:45:37.115Z,-0.07
2018-03-07T00:48:06.225Z,-0.06
2018-03-07T00:50:35.696Z,-0.05
2018-03-07T00:53:05.467Z,-0.04
2018-03-07T00:55:34.540Z,-0.04
2018-03-07T00:58:03.641Z,-0.01
2018-03-07T01:00:32.706Z,0.03
2018-03-07T01:03:01.881Z,0.09
2018-03-07T01:05:30.953Z,0.13
2018-03-07T01:08:00.068Z,0.17
2018-03-07T01:10:29.184Z,0.21
2018-03-07T01:12:58.281Z,0.26
2018-03-07T01:15:27.342Z,0.29
2018-03-07T01:17:56.412Z,0.34
2018-03-07T01:20:25.611Z,0.38
2018-03-07T01:22:55.219Z,0.42
2018-03-07T01:25:24.285Z,0.46
2018-03-07T01:27:53.361Z,0.50
2018-03-07T01:30:22.659Z,0.54
2018-03-07T01:32:51.738Z,0.57
2018-03-07T01:35:21.382Z,0.60
2018-03-07T01:37:50.514Z,0.63
2018-03-07T01:40:20.172Z,0.62
2018-03-07T01:42:49.668Z,0.61
2018-03-07T01:45:19.091Z,0.62
2018-03-07T01:47:48.154Z,0.67
2018-03-07T01:50:17.953Z,0.69
2018-03-07T01:52:47.800Z,0.68
2018-03-07T01:55:17.060Z,0.68
2018-03-07T01:57:46.581Z,0.69
2018-03-07T02:00:15.700Z,0.72
2018-03-07T02:02:44.831Z,0.73
2018-03-07T02:05:14.318Z,0.75
2018-03-07T02:07:43.408Z,0.80
2018-03-07T02:10:13.065Z,0.84
2018-03-07T02:12:42.188Z,0.87
2018-03-07T02:15:11.331Z,0.89
2018-03-07T02:17:40.549Z,0.91
2018-03-07T02:20:10.856Z,0.95
2018-03-07T02:22:40.525Z,0.98
2018-03-07T02:25:09.614Z,1.00
2018-03-07T02:27:38.986Z,1.01
2018-03-07T02:30:08.351Z,1.05
2018-03-07T02:32:39.014Z,1.08
2018-03-07T02:35:10.060Z,1.09
2018-03-07T02:37:39.155Z,1.11
2018-03-07T02:40:09.043Z,1.13
2018-03-07T02:42:38.761Z,1.12
2018-03-07T02:45:08.528Z,1.11
2018-03-07T02:47:38.486Z,1.03
2018-03-07T02:50:08.649Z,0.99
2018-03-07T02:52:37.899Z,0.91
2018-03-07T02:55:07.990Z,0.91
2018-03-07T02:57:39.132Z,0.95
2018-03-07T03:00:08.522Z,0.95
2018-03-07T03:02:38.714Z,0.97
2018-03-07T03:05:08.951Z,0.98
2018-03-07T03:07:39.119Z,0.96
2018-03-07T03:10:08.860Z,0.98
2018-03-07T03:12:38.967Z,0.99
2018-03-07T03:15:08.035Z,0.96
2018-03-07T03:17:37.779Z,0.95
2018-03-07T03:20:06.858Z,0.95
2018-03-07T03:22:36.259Z,0.95
2018-03-07T03:25:05.363Z,0.92
2018-03-07T03:27:34.695Z,0.88
2018-03-07T03:30:04.569Z,0.89
2018-03-07T03:32:34.406Z,0.89
2018-03-07T03:35:03.470Z,0.93
2018-03-07T03:37:32.578Z,0.97
2018-03-07T03:40:01.685Z,1.00
2018-03-07T03:42:30.740Z,1.06
2018-03-07T03:44:59.840Z,1.07
2018-03-07T03:47:28.910Z,1.10
2018-03-07T03:49:59.163Z,1.12
2018-03-07T03:52:29.599Z,1.11
2018-03-07T03:54:58.741Z,1.11
2018-03-07T03:57:28.525Z,1.10
2018-03-07T03:59:57.587Z,1.10
2018-03-07T04:02:26.750Z,1.09
2018-03-07T04:04:55.816Z,1.12
2018-03-07T04:07:24.879Z,1.13
2018-03-07T04:09:55.133Z,1.12
2018-03-07T04:12:24.203Z,1.11
2018-03-07T04:14:53.283Z,1.13
2018-03-07T04:17:22.352Z,1.18
2018-03-07T04:19:51.557Z,1.23
2018-03-07T04:22:20.651Z,1.25
2018-03-07T04:24:50.198Z,1.24
2018-03-07T04:27:19.381Z,1.24
2018-03-07T04:29:48.451Z,1.26
2018-03-07T04:32:17.522Z,1.25
2018-03-07T04:34:46.591Z,1.26
2018-03-07T04:37:15.656Z,1.28
2018-03-07T04:39:44.734Z,1.30
2018-03-07T04:42:13.907Z,1.26
2018-03-07T04:44:43.578Z,1.25
2018-03-07T04:47:14.376Z,1.24
2018-03-07T04:49:44.444Z,1.23
2018-03-07T04:52:13.510Z,1.21
2018-03-07T04:54:42.755Z,1.19
2018-03-07T04:57:12.798Z,1.18
2018-03-07T04:59:42.060Z,1.19
2018-03-07T05:02:11.212Z,1.23
2018-03-07T05:04:40.851Z,1.26
2018-03-07T05:07:10.586Z,1.24
2018-03-07T05:09:39.648Z,1.25
2018-03-07T05:12:08.740Z,1.25
2018-03-07T05:14:38.073Z,1.25
2018-03-07T05:17:07.372Z,1.24
2018-03-07T05:19:36.435Z,1.21
2018-03-07T05:22:06.288Z,1.24
2018-03-07T05:24:35.350Z,1.25
2018-03-07T05:27:04.763Z,1.24
2018-03-07T05:29:34.123Z,1.23
2018-03-07T05:32:03.254Z,1.23
2018-03-07T05:34:32.310Z,1.19
2018-03-07T05:37:01.429Z,1.19
2018-03-07T05:39:30.699Z,1.18
2018-03-07T05:41:59.764Z,1.20
2018-03-07T05:44:29.388Z,1.23
2018-03-07T05:46:59.532Z,1.24
2018-03-07T05:49:29.098Z,1.26
2018-03-07T05:51:59.753Z,1.24
2018-03-07T05:54:28.834Z,1.20
2018-03-07T05:56:58.593Z,1.19
2018-03-07T05:59:27.659Z,1.19
2018-03-07T06:01:57.578Z,1.20
2018-03-07T06:04:26.754Z,1.23
2018-03-07T06:06:56.982Z,1.24
2018-03-07T06:09:26.904Z,1.23
2018-03-07T06:11:56.626Z,1.20
2018-03-07T06:14:25.876Z,1.20
2018-03-07T06:16:55.115Z,1.22
2018-03-07T06:19:24.550Z,1.22
2018-03-07T06:21:53.707Z,1.24
2018-03-07T06:24:22.919Z,1.23
2018-03-07T06:26:51.995Z,1.22
2018-03-07T06:29:21.597Z,1.19
2018-03-07T06:31:50.943Z,1.15
2018-03-07T06:34:20.247Z,1.15
2018-03-07T06:36:49.728Z,1.15
2018-03-07T06:39:19.147Z,1.17
2018-03-07T06:41:48.609Z,1.19
2018-03-07T06:44:18.290Z,1.21
2018-03-07T06:46:48.717Z,1.22
2018-03-07T06:49:18.630Z,1.26
2018-03-07T06:51:47.787Z,1.28
2018-03-07T06:54:16.987Z,1.28
2018-03-07T06:56:47.031Z,1.30
2018-03-07T06:59:16.268Z,1.30
2018-03-07T07:01:46.404Z,1.32
2018-03-07T07:04:15.466Z,1.32
2018-03-07T07:06:45.078Z,1.33
2018-03-07T07:09:14.729Z,1.37
2018-03-07T07:11:43.923Z,1.39
2018-03-07T07:14:13.016Z,1.38
2018-03-07T07:16:42.261Z,1.35
2018-03-07T07:19:11.691Z,1.38
2018-03-07T07:21:40.882Z,1.42
2018-03-07T07:24:10.300Z,1.50
2018-03-07T07:26:40.023Z,1.50
2018-03-07T07:29:09.166Z,1.49
2018-03-07T07:31:38.239Z,1.53
2018-03-07T07:34:08.988Z,1.54
2018-03-07T07:36:38.262Z,1.54
2018-03-07T07:39:07.616Z,1.58
2018-03-07T07:41:36.802Z,1.60
2018-03-07T07:44:06.574Z,1.60
2018-03-07T07:46:35.722Z,1.49
2018-03-07T07:49:05.060Z,1.44
2018-03-07T07:51:34.295Z,1.38
2018-03-07T07:54:03.369Z,1.36
2018-03-07T07:56:32.609Z,1.33
2018-03-07T07:59:01.817Z,1.36
2018-03-07T08:01:31.798Z,1.36
2018-03-07T08:04:01.831Z,1.35
2018-03-07T08:06:31.473Z,1.36
2018-03-07T08:09:00.694Z,1.39
2018-03-07T08:11:30.514Z,1.45
2018-03-07T08:13:59.814Z,1.47
2018-03-07T08:16:29.802Z,1.49
2018-03-07T08:18:58.907Z,1.47
2018-03-07T08:21:28.377Z,1.46
2018-03-07T08:23:57.446Z,1.46
2018-03-07T08:26:26.939Z,1.49
2018-03-07T08:28:56.130Z,1.49
2018-03-07T08:31:25.422Z,1.42
2018-03-07T08:33:55.829Z,1.39
2018-03-07T08:36:25.559Z,1.41
2018-03-07T08:38:54.945Z,1.44
2018-03-07T08:41:24.594Z,1.50
2018-03-07T08:43:54.074Z,1.49
2018-03-07T08:46:24.140Z,1.48
2018-03-07T08:48:53.950Z,1.50
2018-03-07T08:51:23.663Z,1.48
2018-03-07T08:53:52.740Z,1.48
2018-03-07T08:56:22.021Z,1.51
2018-03-07T08:58:52.468Z,1.55
2018-03-07T09:01:21.537Z,1.60
2018-03-07T09:03:51.095Z,1.65
2018-03-07T09:06:21.414Z,1.70
2018-03-07T09:08:51.677Z,1.73
2018-03-07T09:11:21.364Z,1.74
2018-03-07T09:13:51.004Z,1.79
2018-03-07T09:16:20.118Z,1.76
2018-03-07T09:18:49.371Z,1.77
2018-03-07T09:21:19.015Z,1.79
2018-03-07T09:23:48.156Z,1.80
2018-03-07T09:26:17.264Z,1.82
2018-03-07T09:28:46.473Z,1.84
2018-03-07T09:31:15.940Z,1.86
2018-03-07T09:33:45.208Z,1.87
2018-03-07T09:36:15.034Z,1.87
2018-03-07T09:38:45.019Z,1.90
2018-03-07T09:41:14.130Z,1.90
2018-03-07T09:43:43.207Z,1.89
2018-03-07T09:46:12.408Z,1.88
2018-03-07T09:48:41.470Z,1.88
2018-03-07T09:51:10.610Z,1.89
2018-03-07T09:53:39.728Z,1.91
2018-03-07T09:56:08.834Z,1.93
2018-03-07T09:58:37.946Z,1.96
2018-03-07T10:01:07.214Z,1.96
2018-03-07T10:03:36.289Z,1.96
2018-03-07T10:06:05.486Z,1.97
2018-03-07T10:08:34.691Z,1.97
2018-03-07T10:11:03.975Z,1.96
2018-03-07T10:13:33.458Z,1.93
2018-03-07T10:16:02.994Z,1.97
2018-03-07T10:18:32.450Z,1.97
2018-03-07T10:21:01.812Z,1.96
2018-03-07T10:23:30.884Z,1.99
2018-03-07T10:26:00.383Z,2.02
2018-03-07T10:28:29.907Z,2.07
2018-03-07T10:30:59.060Z,2.15
2018-03-07T10:33:28.649Z,2.19
2018-03-07T10:35:57.832Z,2.24
2018-03-07T10:38:27.081Z,2.25
2018-03-07T10:40:56.625Z,2.28
2018-03-07T10:43:26.337Z,2.37
2018-03-07T10:45:57.300Z,2.36
2018-03-07T10:48:26.499Z,2.36
2018-03-07T10:50:55.646Z,2.36
2018-03-07T10:53:25.004Z,2.37
2018-03-07T10:55:54.501Z,2.43
2018-03-07T10:58:24.007Z,2.44
2018-03-07T11:00:54.065Z,2.43
2018-03-07T11:03:23.430Z,2.44
2018-03-07T11:05:52.586Z,2.43
2018-03-07T11:08:21.764Z,2.38
2018-03-07T11:10:50.963Z,2.33
2018-03-07T11:13:20.530Z,2.33
2018-03-07T11:15:49.608Z,2.36
2018-03-07T11:18:19.382Z,2.36
2018-03-07T11:20:49.107Z,2.34
2018-03-07T11:23:18.766Z,2.29
2018-03-07T11:25:48.190Z,2.32
2018-03-07T11:28:17.255Z,2.33
2018-03-07T11:30:46.343Z,2.38
2018-03-07T11:33:15.972Z,2.38
2018-03-07T11:35:45.189Z,2.38
2018-03-07T11:38:14.926Z,2.38
2018-03-07T11:40:45.636Z,2.37
2018-03-07T11:43:14.843Z,2.38
2018-03-07T11:45:44.640Z,2.40
2018-03-07T11:48:15.277Z,2.49
2018-03-07T11:50:44.397Z,2.55
2018-03-07T11:53:13.474Z,2.56
2018-03-07T11:55:42.534Z,2.63
2018-03-07T11:58:12.440Z,2.67
2018-03-07T12:00:41.821Z,2.68
2018-03-07T12:03:11.000Z,2.74
2018-03-07T12:05:40.279Z,2.83
2018-03-07T12:08:09.547Z,2.87
2018-03-07T12:10:38.825Z,2.90
2018-03-07T12:13:07.898Z,2.88
2018-03-07T12:15:36.979Z,2.95
2018-03-07T12:18:06.042Z,2.99
2018-03-07T12:20:35.108Z,2.97
2018-03-07T12:23:04.188Z,2.94
2018-03-07T12:25:33.259Z,2.89
2018-03-07T12:28:04.540Z,2.89
2018-03-07T12:30:33.611Z,2.81
2018-03-07T12:33:02.750Z,2.74
2018-03-07T12:35:31.875Z,2.69
2018-03-07T12:38:01.027Z,2.68
2018-03-07T12:40:30.167Z,2.71
2018-03-07T12:42:59.485Z,2.79
2018-03-07T12:45:28.571Z,2.82
2018-03-07T12:47:57.658Z,2.80
2018-03-07T12:50:26.725Z,2.76
2018-03-07T12:52:55.813Z,2.71
2018-03-07T12:55:24.879Z,2.64
2018-03-07T12:57:53.954Z,2.58
2018-03-07T13:00:23.023Z,2.53
2018-03-07T13:02:52.106Z,2.49
2018-03-07T13:05:21.182Z,2.44
2018-03-07T13:07:50.316Z,2.46
2018-03-07T13:10:19.972Z,2.53
2018-03-07T13:12:49.052Z,2.49
2018-03-07T13:15:18.124Z,2.49
2018-03-07T13:17:47.630Z,2.46
2018-03-07T13:20:17.055Z,2.39
2018-03-07T13:22:46.354Z,2.35
2018-03-07T13:25:15.491Z,2.38
2018-03-07T13:27:44.562Z,2.40
2018-03-07T13:30:13.663Z,2.41
2018-03-07T13:32:42.727Z,2.40
2018-03-07T13:35:11.874Z,2.40
2018-03-07T13:37:40.946Z,2.44
2018-03-07T13:40:10.021Z,2.46
2018-03-07T13:42:39.463Z,2.48
2018-03-07T13:45:08.525Z,2.49
2018-03-07T13:47:38.094Z,2.53
2018-03-07T13:50:07.168Z,2.56
2018-03-07T13:52:38.393Z,2.57
2018-03-07T13:55:07.576Z,2.56
2018-03-07T13:57:36.665Z,2.56
2018-03-07T14:00:23.209Z,2.56
2018-03-07T14:02:52.275Z,2.52
2018-03-07T14:05:23.020Z,2.48
2018-03-07T14:07:55.483Z,2.47
2018-03-07T14:10:29.015Z,2.45
2018-03-07T14:12:58.334Z,2.47
2018-03-07T14:15:27.454Z,2.46
2018-03-07T14:17:56.539Z,2.51
2018-03-07T14:20:25.755Z,2.53
2018-03-07T14:22:54.827Z,2.55
2018-03-07T14:25:23.899Z,2.54
2018-03-07T14:27:53.044Z,2.54
2018-03-07T14:30:22.372Z,2.55
2018-03-07T14:32:51.507Z,2.55
2018-03-07T14:35:20.570Z,2.58
2018-03-07T14:37:50.082Z,2.58
2018-03-07T14:40:19.254Z,2.60
2018-03-07T14:42:48.318Z,2.60
2018-03-07T14:45:17.387Z,2.59
2018-03-07T14:47:46.504Z,2.58
2018-03-07T14:50:15.571Z,2.56
2018-03-07T14:52:44.653Z,2.55
2018-03-07T14:55:13.785Z,2.55
2018-03-07T14:57:42.850Z,2.55
2018-03-07T15:00:11.919Z,2.54
2018-03-07T15:02:40.983Z,2.54
2018-03-07T15:05:10.077Z,2.54
2018-03-07T15:07:39.168Z,2.54
2018-03-07T15:10:08.600Z,2.54
2018-03-07T15:12:37.693Z,2.52
2018-03-07T15:15:06.983Z,2.57
2018-03-07T15:17:36.055Z,2.62
2018-03-07T15:20:06.654Z,2.60
2018-03-07T15:22:35.859Z,2.57
2018-03-07T15:25:05.093Z,2.59
2018-03-07T15:27:34.214Z,2.56
2018-03-07T15:30:04.912Z,2.58
2018-03-07T15:32:34.014Z,2.57
2018-03-07T15:35:08.852Z,2.55
2018-03-07T15:37:37.890Z,2.54
2018-03-07T15:40:08.577Z,2.51
2018-03-07T15:42:37.822Z,2.50
2018-03-07T15:45:06.899Z,2.51
2018-03-07T15:47:36.407Z,2.51
2018-03-07T15:50:05.479Z,2.54
2018-03-07T15:52:34.581Z,2.55
2018-03-07T15:55:03.825Z,2.55
2018-03-07T15:57:32.941Z,2.57
2018-03-07T16:00:02.000Z,2.58
2018-03-07T16:02:31.078Z,2.57
2018-03-07T16:05:00.176Z,2.55
2018-03-07T16:07:29.253Z,2.58
2018-03-07T16:09:58.325Z,2.59
2018-03-07T16:12:27.386Z,2.58
2018-03-07T16:14:56.451Z,2.56
2018-03-07T16:17:26.142Z,2.55
2018-03-07T16:19:55.517Z,2.58
2018-03-07T16:22:24.582Z,2.61
2018-03-07T16:24:53.668Z,2.63
2018-03-07T16:27:23.272Z,2.64
2018-03-07T16:29:52.948Z,2.63
2018-03-07T16:32:22.137Z,2.62
2018-03-07T16:34:51.463Z,2.62
2018-03-07T16:37:20.536Z,2.62
2018-03-07T16:39:49.641Z,2.61
2018-03-07T16:42:18.746Z,2.61
2018-03-07T16:44:47.883Z,2.61
2018-03-07T16:47:17.244Z,2.61
2018-03-07T16:49:46.338Z,2.61
2018-03-07T16:52:15.476Z,2.61
2018-03-07T16:54:44.638Z,2.63
2018-03-07T16:57:13.716Z,2.64
2018-03-07T16:59:42.792Z,2.65
2018-03-07T17:02:11.951Z,2.62
2018-03-07T17:04:41.677Z,2.62
2018-03-07T17:07:10.883Z,2.62
2018-03-07T17:09:39.978Z,2.63
2018-03-07T17:12:09.398Z,2.62
2018-03-07T17:14:38.473Z,2.63
2018-03-07T17:17:07.732Z,2.63
2018-03-07T17:19:37.130Z,2.65
2018-03-07T17:22:06.318Z,2.67
2018-03-07T17:24:35.650Z,2.66
2018-03-07T17:27:04.831Z,2.65
2018-03-07T17:29:34.600Z,2.65
2018-03-07T17:32:03.972Z,2.65
2018-03-07T17:34:33.123Z,2.65
2018-03-07T17:37:03.261Z,2.66
2018-03-07T17:39:32.598Z,2.67
2018-03-07T17:42:02.814Z,2.67
2018-03-07T17:44:32.173Z,2.68
2018-03-07T17:47:02.043Z,2.67
2018-03-07T17:49:31.246Z,2.69
2018-03-07T17:52:00.432Z,2.72
2018-03-07T17:54:29.871Z,2.72
2018-03-07T17:56:59.050Z,2.72
2018-03-07T17:59:32.760Z,2.71
2018-03-07T18:02:02.243Z,2.71
2018-03-07T18:04:31.647Z,2.68
2018-03-07T18:07:01.517Z,2.65
2018-03-07T18:09:31.760Z,2.65
2018-03-07T18:12:00.951Z,2.63
2018-03-07T18:14:30.166Z,2.62
2018-03-07T18:16:59.424Z,2.61
2018-03-07T18:19:29.394Z,2.59
2018-03-07T18:21:58.503Z,2.56
2018-03-07T18:24:27.607Z,2.55
2018-03-07T18:26:56.685Z,2.53
2018-03-07T18:29:25.879Z,2.52
2018-03-07T18:31:55.208Z,2.53
2018-03-07T18:34:24.549Z,2.54
2018-03-07T18:36:53.986Z,2.51
2018-03-07T18:39:25.181Z,2.46
2018-03-07T18:41:54.283Z,2.44
2018-03-07T18:44:24.117Z,2.45
2018-03-07T18:46:54.305Z,2.46
2018-03-07T18:49:23.840Z,2.53
2018-03-07T18:51:53.788Z,2.54
2018-03-07T18:54:22.910Z,2.56
2018-03-07T18:56:52.031Z,2.57
2018-03-07T18:59:21.814Z,2.58
2018-03-07T19:01:50.896Z,2.61
2018-03-07T19:04:19.976Z,2.61
2018-03-07T19:06:50.393Z,2.63
2018-03-07T19:09:19.975Z,2.66
2018-03-07T19:11:49.062Z,2.70
2018-03-07T19:14:18.146Z,2.70
2018-03-07T19:16:47.247Z,2.70
2018-03-07T19:19:16.367Z,2.70
2018-03-07T19:21:45.564Z,2.69
2018-03-07T19:24:15.435Z,2.69
2018-03-07T19:26:45.102Z,2.71
2018-03-07T19:29:14.787Z,2.73
2018-03-07T19:31:43.973Z,2.75
2018-03-07T19:34:13.353Z,2.75
2018-03-07T19:36:45.926Z,2.75
2018-03-07T19:39:24.405Z,2.76
2018-03-07T19:41:55.298Z,2.76
2018-03-07T19:44:24.512Z,2.75
2018-03-07T19:46:55.034Z,2.71
2018-03-07T19:49:24.370Z,2.70
2018-03-07T19:51:53.534Z,2.73
2018-03-07T19:54:23.220Z,2.75
2018-03-07T19:56:53.297Z,2.74
2018-03-07T19:59:23.280Z,2.75
2018-03-07T20:01:52.931Z,2.73
2018-03-07T20:04:22.117Z,2.72
2018-03-07T20:06:51.488Z,2.75
2018-03-07T20:09:20.658Z,2.74
2018-03-07T20:11:49.862Z,2.74
2018-03-07T20:14:19.247Z,2.74
2018-03-07T20:16:48.978Z,2.77
2018-03-07T20:19:18.493Z,2.79
2018-03-07T20:21:47.775Z,2.75
2018-03-07T20:24:16.910Z,2.73
2018-03-07T20:26:47.405Z,2.69
2018-03-07T20:29:16.691Z,2.68
2018-03-07T20:31:46.868Z,2.72
2018-03-07T20:34:16.016Z,2.71
2018-03-07T20:36:45.163Z,2.73
2018-03-07T20:39:14.238Z,2.76
2018-03-07T20:41:43.310Z,2.78
2018-03-07T20:44:12.543Z,2.78
2018-03-07T20:46:42.253Z,2.79
2018-03-07T20:49:13.604Z,2.81
2018-03-07T20:51:42.793Z,2.86
2018-03-07T20:54:11.918Z,2.87
2018-03-07T20:56:41.122Z,2.84
2018-03-07T20:59:10.597Z,2.80
2018-03-07T21:01:39.975Z,2.77
2018-03-07T21:04:09.170Z,2.73
2018-03-07T21:06:39.527Z,2.74
2018-03-07T21:09:08.611Z,2.77
2018-03-07T21:11:37.991Z,2.74
2018-03-07T21:14:07.098Z,2.72
2018-03-07T21:16:36.509Z,2.72
2018-03-07T21:19:05.906Z,2.71
2018-03-07T21:21:37.062Z,2.72
2018-03-07T21:24:07.668Z,2.72
2018-03-07T21:26:37.545Z,2.72
2018-03-07T21:29:06.731Z,2.71
2018-03-07T21:31:36.666Z,2.72
2018-03-07T21:34:05.798Z,2.77
2018-03-07T21:36:34.898Z,2.79
2018-03-07T21:39:04.078Z,2.81
2018-03-07T21:41:34.052Z,2.82
2018-03-07T21:44:03.371Z,2.83
2018-03-07T21:46:32.459Z,2.83
2018-03-07T21:49:01.553Z,2.83
2018-03-07T21:51:30.963Z,2.84
2018-03-07T21:54:00.298Z,2.86
2018-03-07T21:56:29.366Z,2.85
2018-03-07T21:58:58.859Z,2.83
2018-03-07T22:01:28.103Z,2.82
2018-03-07T22:03:58.124Z,2.83
2018-03-07T22:06:27.704Z,2.82
2018-03-07T22:08:57.822Z,2.79
2018-03-07T22:11:26.940Z,2.84
2018-03-07T22:13:56.013Z,2.90
2018-03-07T22:16:25.524Z,2.92
2018-03-07T22:18:54.723Z,2.94
2018-03-07T22:21:23.818Z,2.93
2018-03-07T22:23:52.891Z,2.94
2018-03-07T22:26:22.030Z,2.96
2018-03-07T22:28:51.106Z,2.97
2018-03-07T22:31:20.368Z,2.95
2018-03-07T22:33:49.720Z,2.93
2018-03-07T22:36:18.944Z,2.90
2018-03-07T22:38:48.013Z,2.85
2018-03-07T22:41:17.095Z,2.85
2018-03-07T22:43:46.225Z,2.86
2018-03-07T22:46:15.302Z,2.84
2018-03-07T22:48:44.375Z,2.80
2018-03-07T22:51:13.448Z,2.80
2018-03-07T22:53:42.793Z,2.80
2018-03-07T22:56:11.863Z,2.83
2018-03-07T22:58:41.023Z,2.86
2018-03-07T23:01:10.101Z,2.89
2018-03-07T23:03:39.186Z,2.90
2018-03-07T23:06:08.308Z,2.93
2018-03-07T23:08:37.743Z,2.96
2018-03-07T23:11:06.950Z,2.98
2018-03-07T23:13:36.053Z,2.99
2018-03-07T23:16:05.655Z,3.00
2018-03-07T23:18:34.870Z,2.95
2018-03-07T23:21:03.995Z,2.92
2018-03-07T23:23:33.108Z,2.93
2018-03-07T23:26:02.182Z,2.92
2018-03-07T23:28:31.922Z,2.90
2018-03-07T23:31:00.994Z,2.90
2018-03-07T23:33:30.070Z,2.92
2018-03-07T23:35:59.150Z,2.91
2018-03-07T23:38:28.245Z,2.89
2018-03-07T23:40:57.323Z,2.87
2018-03-07T23:43:26.402Z,2.86
2018-03-07T23:45:55.482Z,2.89
2018-03-07T23:48:24.556Z,2.90
2018-03-07T23:50:53.659Z,2.90
2018-03-07T23:53:22.806Z,2.89
2018-03-07T23:55:52.114Z,2.90
2018-03-07T23:58:21.299Z,2.88
